Portada
METAR-TAF:

METAR-TAF

Aeroports :

Arkhànguelsk, Rússia

latitud: 64-30N, longitud: 040-44E, altitud: 13 m

Observació

L'informe es va fer fa 20 minuts, a les 19:30 UTC
Vent 4 kt del Sud/Sud-Est, variant entre Est/Sud-Est i Sud/Sud-Oest
Temperatura 20°C
Humitat 56%
Pressió 1009 hPa
Visibilitat 10 km o més
Núvols disperses a una alçada de 3000 ft

METAR: ULAA 061930Z 16002MPS 120V200 9999 SCT030 20/11 Q1009 R08/CLRD68 NOSIG RMK QFE756/1008

Hora: 22:50 (19:50 UTC)

Pronòstic

L'informe es va fer fa 2 hores i 50 minuts, a les 17:00 UTC
Pronòstic vàlid del 06 a les 18 UTC al 07 a les 18 UTC
Vent 10 kt del Sud/Sud-Est
Visibilitat 10 km o més
Cel ennuvolat a una alçada de 2000 ft
Temporalment
l' 06 a les 18 UTC al 07 a les 18 UTC
Vent 8 kt del Sud amb ràfegues de 23 kt
Visibilitat: 6000 m
Cel ennuvolat a una alçada de 1600 ft, Cumulonimbus.
xàfecs de pluja

TAF: ULAA 061700Z 0618/0718 16005MPS 9999 BKN020 TEMPO 0618/0718 18004G12MPS 6000 -SHRA BKN016CB

Observacions i pronòstics meteorològics de més de 4000 aeroports (METAR i TAF).

Les estacions disponibles són els punts grocs i vermells al mapa.

Posi el ratolí al punt desitjat per veure el nom de l'estació.

Feu clic per veure les observacions i els pronòstics meteorològics.

Per canviar el mapa: feu clic els botons verds amb una creu de color negre per apropar; al botó verd amb un guió per allunyar la imatge; o en les fletxes verdes per a mapes adjacents.


METAR-TAF: